sensor_id;sensor_type;location;lat;lon;timestamp;P1;durP1;ratioP1;P2;durP2;ratioP2
69185;SDS011;56298;49.246;9.410;2022-11-25T00:00:03;34.50;;;7.33;;
69185;SDS011;56298;49.246;9.410;2022-11-25T00:02:29;14.45;;;6.90;;
69185;SDS011;56298;49.246;9.410;2022-11-25T00:04:54;66.90;;;7.97;;
69185;SDS011;56298;49.246;9.410;2022-11-25T00:07:19;21.73;;;7.03;;
69185;SDS011;56298;49.246;9.410;2022-11-25T00:09:45;34.43;;;7.53;;
69185;SDS011;56298;49.246;9.410;2022-11-25T00:12:10;61.17;;;7.67;;
69185;SDS011;56298;49.246;9.410;2022-11-25T00:14:35;45.03;;;7.20;;
69185;SDS011;56298;49.246;9.410;2022-11-25T00:17:00;24.97;;;6.67;;
69185;SDS011;56298;49.246;9.410;2022-11-25T00:19:26;53.50;;;7.80;;
69185;SDS011;56298;49.246;9.410;2022-11-25T00:21:51;26.70;;;7.00;;
69185;SDS011;56298;49.246;9.410;2022-11-25T00:24:16;68.57;;;7.40;;
69185;SDS011;56298;49.246;9.410;2022-11-25T00:26:42;40.97;;;6.90;;
69185;SDS011;56298;49.246;9.410;2022-11-25T00:29:09;18.07;;;6.40;;
69185;SDS011;56298;49.246;9.410;2022-11-25T00:31:37;26.08;;;6.45;;
69185;SDS011;56298;49.246;9.410;2022-11-25T00:34:03;27.55;;;6.45;;
69185;SDS011;56298;49.246;9.410;2022-11-25T00:39:15;14.88;;;6.78;;
69185;SDS011;56298;49.246;9.410;2022-11-25T00:41:41;17.97;;;7.37;;
69185;SDS011;56298;49.246;9.410;2022-11-25T00:44:26;24.25;;;7.18;;
69185;SDS011;56298;49.246;9.410;2022-11-25T00:47:08;16.98;;;6.60;;
69185;SDS011;56298;49.246;9.410;2022-11-25T00:49:44;61.92;;;7.80;;
69185;SDS011;56298;49.246;9.410;2022-11-25T00:52:12;11.67;;;6.20;;
69185;SDS011;56298;49.246;9.410;2022-11-25T00:54:39;14.63;;;6.80;;
69185;SDS011;56298;49.246;9.410;2022-11-25T00:57:05;23.27;;;6.73;;
69185;SDS011;56298;49.246;9.410;2022-11-25T00:59:30;21.03;;;6.80;;
69185;SDS011;56298;49.246;9.410;2022-11-25T01:01:55;17.63;;;7.10;;
69185;SDS011;56298;49.246;9.410;2022-11-25T01:04:21;13.57;;;6.73;;
69185;SDS011;56298;49.246;9.410;2022-11-25T01:06:46;25.20;;;7.03;;
69185;SDS011;56298;49.246;9.410;2022-11-25T01:09:12;33.43;;;7.30;;
69185;SDS011;56298;49.246;9.410;2022-11-25T01:11:37;30.33;;;6.43;;
69185;SDS011;56298;49.246;9.410;2022-11-25T01:14:03;21.63;;;6.27;;
69185;SDS011;56298;49.246;9.410;2022-11-25T01:16:29;29.47;;;6.60;;
69185;SDS011;56298;49.246;9.410;2022-11-25T01:18:55;28.33;;;6.63;;
69185;SDS011;56298;49.246;9.410;2022-11-25T01:21:23;16.20;;;6.07;;
69185;SDS011;56298;49.246;9.410;2022-11-25T01:23:50;30.85;;;6.93;;
69185;SDS011;56298;49.246;9.410;2022-11-25T01:26:17;20.38;;;6.57;;
69185;SDS011;56298;49.246;9.410;2022-11-25T01:28:44;31.85;;;6.72;;
69185;SDS011;56298;49.246;9.410;2022-11-25T01:31:11;28.77;;;6.20;;
69185;SDS011;56298;49.246;9.410;2022-11-25T01:33:39;30.88;;;6.30;;
69185;SDS011;56298;49.246;9.410;2022-11-25T01:36:05;18.00;;;6.00;;
69185;SDS011;56298;49.246;9.410;2022-11-25T01:38:33;19.27;;;6.10;;
69185;SDS011;56298;49.246;9.410;2022-11-25T01:40:59;25.52;;;6.78;;
69185;SDS011;56298;49.246;9.410;2022-11-25T01:43:25;33.07;;;6.43;;
69185;SDS011;56298;49.246;9.410;2022-11-25T01:45:52;20.80;;;6.00;;
69185;SDS011;56298;49.246;9.410;2022-11-25T01:48:26;17.67;;;5.85;;
69185;SDS011;56298;49.246;9.410;2022-11-25T01:50:56;26.15;;;6.25;;
69185;SDS011;56298;49.246;9.410;2022-11-25T01:53:22;29.50;;;6.35;;
69185;SDS011;56298;49.246;9.410;2022-11-25T01:55:49;22.33;;;6.32;;
69185;SDS011;56298;49.246;9.410;2022-11-25T01:58:20;22.60;;;6.03;;
69185;SDS011;56298;49.246;9.410;2022-11-25T02:00:51;18.35;;;5.90;;
69185;SDS011;56298;49.246;9.410;2022-11-25T02:03:20;20.90;;;6.30;;
69185;SDS011;56298;49.246;9.410;2022-11-25T02:06:04;14.63;;;6.25;;
69185;SDS011;56298;49.246;9.410;2022-11-25T02:08:34;16.60;;;5.90;;
69185;SDS011;56298;49.246;9.410;2022-11-25T02:11:00;18.33;;;6.27;;
69185;SDS011;56298;49.246;9.410;2022-11-25T02:13:28;48.47;;;7.30;;
69185;SDS011;56298;49.246;9.410;2022-11-25T02:15:54;30.38;;;6.22;;
69185;SDS011;56298;49.246;9.410;2022-11-25T02:18:19;29.57;;;6.83;;
69185;SDS011;56298;49.246;9.410;2022-11-25T02:20:45;42.80;;;7.03;;
69185;SDS011;56298;49.246;9.410;2022-11-25T02:23:25;26.30;;;6.63;;
69185;SDS011;56298;49.246;9.410;2022-11-25T02:26:08;14.47;;;6.13;;
69185;SDS011;56298;49.246;9.410;2022-11-25T02:28:34;17.23;;;6.57;;
69185;SDS011;56298;49.246;9.410;2022-11-25T02:31:00;13.55;;;6.72;;
69185;SDS011;56298;49.246;9.410;2022-11-25T02:33:25;13.50;;;6.63;;
69185;SDS011;56298;49.246;9.410;2022-11-25T02:35:53;11.45;;;5.68;;
69185;SDS011;56298;49.246;9.410;2022-11-25T02:41:09;15.95;;;6.22;;
69185;SDS011;56298;49.246;9.410;2022-11-25T02:43:47;14.23;;;6.63;;
69185;SDS011;56298;49.246;9.410;2022-11-25T02:46:16;35.78;;;7.18;;
69185;SDS011;56298;49.246;9.410;2022-11-25T02:48:42;45.67;;;7.40;;
69185;SDS011;56298;49.246;9.410;2022-11-25T02:51:09;37.17;;;6.57;;
69185;SDS011;56298;49.246;9.410;2022-11-25T02:53:36;15.10;;;6.20;;
69185;SDS011;56298;49.246;9.410;2022-11-25T02:56:02;14.70;;;6.03;;
69185;SDS011;56298;49.246;9.410;2022-11-25T02:58:28;19.33;;;6.68;;
69185;SDS011;56298;49.246;9.410;2022-11-25T03:00:53;12.13;;;6.40;;
69185;SDS011;56298;49.246;9.410;2022-11-25T03:03:19;17.52;;;6.63;;
69185;SDS011;56298;49.246;9.410;2022-11-25T03:05:44;14.83;;;6.33;;
69185;SDS011;56298;49.246;9.410;2022-11-25T03:08:10;13.67;;;6.53;;
69185;SDS011;56298;49.246;9.410;2022-11-25T03:10:35;19.40;;;6.80;;
69185;SDS011;56298;49.246;9.410;2022-11-25T03:13:01;15.50;;;6.57;;
69185;SDS011;56298;49.246;9.410;2022-11-25T03:15:26;22.83;;;6.87;;
69185;SDS011;56298;49.246;9.410;2022-11-25T03:17:52;32.33;;;7.05;;
69185;SDS011;56298;49.246;9.410;2022-11-25T03:20:18;14.17;;;6.47;;
69185;SDS011;56298;49.246;9.410;2022-11-25T03:22:44;15.43;;;6.77;;
69185;SDS011;56298;49.246;9.410;2022-11-25T03:25:10;11.10;;;6.37;;
69185;SDS011;56298;49.246;9.410;2022-11-25T03:27:37;11.68;;;6.50;;
69185;SDS011;56298;49.246;9.410;2022-11-25T03:30:04;13.82;;;6.80;;
69185;SDS011;56298;49.246;9.410;2022-11-25T03:32:31;13.38;;;6.28;;
69185;SDS011;56298;49.246;9.410;2022-11-25T03:34:56;11.13;;;6.30;;
69185;SDS011;56298;49.246;9.410;2022-11-25T03:37:21;13.15;;;6.00;;
69185;SDS011;56298;49.246;9.410;2022-11-25T03:39:47;11.07;;;5.90;;
69185;SDS011;56298;49.246;9.410;2022-11-25T03:42:12;12.80;;;6.10;;
69185;SDS011;56298;49.246;9.410;2022-11-25T03:44:37;11.30;;;6.23;;
69185;SDS011;56298;49.246;9.410;2022-11-25T03:47:03;10.70;;;6.07;;
69185;SDS011;56298;49.246;9.410;2022-11-25T03:49:28;12.67;;;5.80;;
69185;SDS011;56298;49.246;9.410;2022-11-25T03:51:54;15.05;;;6.43;;
69185;SDS011;56298;49.246;9.410;2022-11-25T03:54:19;17.17;;;6.83;;
69185;SDS011;56298;49.246;9.410;2022-11-25T03:56:44;14.73;;;6.50;;
69185;SDS011;56298;49.246;9.410;2022-11-25T03:59:09;14.40;;;6.17;;
69185;SDS011;56298;49.246;9.410;2022-11-25T04:01:35;13.17;;;6.80;;
69185;SDS011;56298;49.246;9.410;2022-11-25T04:04:00;12.02;;;6.60;;
69185;SDS011;56298;49.246;9.410;2022-11-25T04:06:25;12.33;;;6.57;;
69185;SDS011;56298;49.246;9.410;2022-11-25T04:08:51;11.67;;;6.07;;
69185;SDS011;56298;49.246;9.410;2022-11-25T04:11:16;13.07;;;6.07;;
69185;SDS011;56298;49.246;9.410;2022-11-25T04:13:41;12.13;;;6.40;;
69185;SDS011;56298;49.246;9.410;2022-11-25T04:16:14;11.03;;;6.03;;
69185;SDS011;56298;49.246;9.410;2022-11-25T04:18:43;11.43;;;5.90;;
69185;SDS011;56298;49.246;9.410;2022-11-25T04:21:09;12.07;;;6.20;;
69185;SDS011;56298;49.246;9.410;2022-11-25T04:23:34;12.57;;;6.50;;
69185;SDS011;56298;49.246;9.410;2022-11-25T04:25:59;13.13;;;6.17;;
69185;SDS011;56298;49.246;9.410;2022-11-25T04:28:24;15.00;;;5.87;;
69185;SDS011;56298;49.246;9.410;2022-11-25T04:30:50;11.63;;;5.70;;
69185;SDS011;56298;49.246;9.410;2022-11-25T04:33:15;11.80;;;6.30;;
69185;SDS011;56298;49.246;9.410;2022-11-25T04:35:40;11.60;;;6.60;;
69185;SDS011;56298;49.246;9.410;2022-11-25T04:38:06;13.57;;;6.40;;
69185;SDS011;56298;49.246;9.410;2022-11-25T04:40:31;12.73;;;6.63;;
69185;SDS011;56298;49.246;9.410;2022-11-25T04:42:56;11.80;;;6.00;;
69185;SDS011;56298;49.246;9.410;2022-11-25T04:45:21;11.57;;;6.25;;
69185;SDS011;56298;49.246;9.410;2022-11-25T04:47:47;10.63;;;5.80;;
69185;SDS011;56298;49.246;9.410;2022-11-25T04:50:16;11.13;;;5.83;;
69185;SDS011;56298;49.246;9.410;2022-11-25T04:52:44;10.07;;;5.75;;
69185;SDS011;56298;49.246;9.410;2022-11-25T04:55:09;11.53;;;5.87;;
69185;SDS011;56298;49.246;9.410;2022-11-25T04:57:34;10.57;;;5.77;;
69185;SDS011;56298;49.246;9.410;2022-11-25T05:00:00;11.02;;;5.90;;
69185;SDS011;56298;49.246;9.410;2022-11-25T05:02:26;10.63;;;5.57;;
69185;SDS011;56298;49.246;9.410;2022-11-25T05:04:53;9.65;;;5.43;;
69185;SDS011;56298;49.246;9.410;2022-11-25T05:07:20;11.52;;;5.78;;
69185;SDS011;56298;49.246;9.410;2022-11-25T05:09:47;9.02;;;5.18;;
69185;SDS011;56298;49.246;9.410;2022-11-25T05:12:14;11.95;;;5.40;;
69185;SDS011;56298;49.246;9.410;2022-11-25T05:14:42;10.23;;;5.55;;
69185;SDS011;56298;49.246;9.410;2022-11-25T05:17:09;11.00;;;5.50;;
69185;SDS011;56298;49.246;9.410;2022-11-25T05:19:38;10.07;;;5.90;;
69185;SDS011;56298;49.246;9.410;2022-11-25T05:22:03;11.03;;;5.93;;
69185;SDS011;56298;49.246;9.410;2022-11-25T05:24:28;10.73;;;5.83;;
69185;SDS011;56298;49.246;9.410;2022-11-25T05:26:54;11.40;;;5.93;;
69185;SDS011;56298;49.246;9.410;2022-11-25T05:29:19;8.67;;;5.27;;
69185;SDS011;56298;49.246;9.410;2022-11-25T05:31:44;9.57;;;5.33;;
69185;SDS011;56298;49.246;9.410;2022-11-25T05:34:10;10.07;;;5.20;;
69185;SDS011;56298;49.246;9.410;2022-11-25T05:36:37;10.17;;;5.47;;
69185;SDS011;56298;49.246;9.410;2022-11-25T05:39:02;9.57;;;5.40;;
69185;SDS011;56298;49.246;9.410;2022-11-25T05:41:28;10.63;;;5.53;;
69185;SDS011;56298;49.246;9.410;2022-11-25T05:43:53;12.23;;;5.87;;
69185;SDS011;56298;49.246;9.410;2022-11-25T05:46:18;9.77;;;5.40;;
69185;SDS011;56298;49.246;9.410;2022-11-25T05:48:44;11.07;;;5.47;;
69185;SDS011;56298;49.246;9.410;2022-11-25T05:51:09;10.47;;;5.53;;
69185;SDS011;56298;49.246;9.410;2022-11-25T05:53:35;11.33;;;5.67;;
69185;SDS011;56298;49.246;9.410;2022-11-25T05:56:02;10.63;;;5.30;;
69185;SDS011;56298;49.246;9.410;2022-11-25T05:58:29;11.07;;;5.63;;
69185;SDS011;56298;49.246;9.410;2022-11-25T06:00:56;11.67;;;5.30;;
69185;SDS011;56298;49.246;9.410;2022-11-25T06:03:25;10.80;;;6.00;;
69185;SDS011;56298;49.246;9.410;2022-11-25T06:05:54;12.27;;;5.80;;
69185;SDS011;56298;49.246;9.410;2022-11-25T06:08:20;10.50;;;5.70;;
69185;SDS011;56298;49.246;9.410;2022-11-25T06:10:45;10.65;;;6.03;;
69185;SDS011;56298;49.246;9.410;2022-11-25T06:13:11;10.33;;;5.83;;
69185;SDS011;56298;49.246;9.410;2022-11-25T06:15:40;9.70;;;6.00;;
69185;SDS011;56298;49.246;9.410;2022-11-25T06:18:07;11.02;;;6.28;;
69185;SDS011;56298;49.246;9.410;2022-11-25T06:20:32;10.73;;;6.20;;
69185;SDS011;56298;49.246;9.410;2022-11-25T06:22:58;11.43;;;6.03;;
69185;SDS011;56298;49.246;9.410;2022-11-25T06:25:23;11.00;;;5.97;;
69185;SDS011;56298;49.246;9.410;2022-11-25T06:27:49;10.23;;;6.00;;
69185;SDS011;56298;49.246;9.410;2022-11-25T06:30:15;11.82;;;6.03;;
69185;SDS011;56298;49.246;9.410;2022-11-25T06:32:40;11.80;;;6.10;;
69185;SDS011;56298;49.246;9.410;2022-11-25T06:35:06;12.13;;;6.33;;
69185;SDS011;56298;49.246;9.410;2022-11-25T06:37:31;10.67;;;6.13;;
69185;SDS011;56298;49.246;9.410;2022-11-25T06:39:57;12.27;;;6.20;;
69185;SDS011;56298;49.246;9.410;2022-11-25T06:42:22;12.33;;;6.30;;
69185;SDS011;56298;49.246;9.410;2022-11-25T06:44:47;10.80;;;6.30;;
69185;SDS011;56298;49.246;9.410;2022-11-25T06:47:13;13.43;;;6.60;;
69185;SDS011;56298;49.246;9.410;2022-11-25T06:49:38;12.73;;;6.77;;
69185;SDS011;56298;49.246;9.410;2022-11-25T06:52:03;10.90;;;6.30;;
69185;SDS011;56298;49.246;9.410;2022-11-25T06:54:29;12.07;;;6.30;;
69185;SDS011;56298;49.246;9.410;2022-11-25T06:56:54;12.13;;;6.33;;
69185;SDS011;56298;49.246;9.410;2022-11-25T06:59:20;15.53;;;6.73;;
69185;SDS011;56298;49.246;9.410;2022-11-25T07:01:45;13.03;;;6.70;;
69185;SDS011;56298;49.246;9.410;2022-11-25T07:04:11;12.23;;;5.80;;
69185;SDS011;56298;49.246;9.410;2022-11-25T07:06:36;18.27;;;6.30;;
69185;SDS011;56298;49.246;9.410;2022-11-25T07:09:02;67.27;;;8.23;;
69185;SDS011;56298;49.246;9.410;2022-11-25T07:11:29;34.83;;;6.68;;
69185;SDS011;56298;49.246;9.410;2022-11-25T07:14:00;21.88;;;6.47;;
69185;SDS011;56298;49.246;9.410;2022-11-25T07:16:30;18.00;;;7.23;;
69185;SDS011;56298;49.246;9.410;2022-11-25T07:18:57;35.63;;;7.10;;
69185;SDS011;56298;49.246;9.410;2022-11-25T07:21:23;18.38;;;6.90;;
69185;SDS011;56298;49.246;9.410;2022-11-25T07:23:49;32.50;;;7.10;;
69185;SDS011;56298;49.246;9.410;2022-11-25T07:26:19;40.67;;;7.07;;
69185;SDS011;56298;49.246;9.410;2022-11-25T07:28:47;15.10;;;6.43;;
69185;SDS011;56298;49.246;9.410;2022-11-25T07:31:17;18.50;;;6.63;;
69185;SDS011;56298;49.246;9.410;2022-11-25T07:33:50;37.10;;;7.10;;
69185;SDS011;56298;49.246;9.410;2022-11-25T07:36:18;27.05;;;7.35;;
69185;SDS011;56298;49.246;9.410;2022-11-25T07:38:43;23.77;;;6.57;;
69185;SDS011;56298;49.246;9.410;2022-11-25T07:41:13;27.37;;;6.53;;
69185;SDS011;56298;49.246;9.410;2022-11-25T07:43:41;23.02;;;6.80;;
69185;SDS011;56298;49.246;9.410;2022-11-25T07:46:09;25.20;;;6.70;;
69185;SDS011;56298;49.246;9.410;2022-11-25T07:48:37;18.88;;;6.68;;
69185;SDS011;56298;49.246;9.410;2022-11-25T07:51:03;21.87;;;6.60;;
69185;SDS011;56298;49.246;9.410;2022-11-25T07:53:29;13.65;;;6.65;;
69185;SDS011;56298;49.246;9.410;2022-11-25T07:55:55;19.77;;;6.90;;
69185;SDS011;56298;49.246;9.410;2022-11-25T07:58:20;20.27;;;6.60;;
69185;SDS011;56298;49.246;9.410;2022-11-25T08:00:45;13.60;;;5.90;;
69185;SDS011;56298;49.246;9.410;2022-11-25T08:03:10;19.40;;;5.93;;
69185;SDS011;56298;49.246;9.410;2022-11-25T08:05:36;16.63;;;5.60;;
69185;SDS011;56298;49.246;9.410;2022-11-25T08:08:01;14.13;;;5.97;;
69185;SDS011;56298;49.246;9.410;2022-11-25T08:10:27;22.87;;;5.80;;
69185;SDS011;56298;49.246;9.410;2022-11-25T08:12:52;15.20;;;5.83;;
69185;SDS011;56298;49.246;9.410;2022-11-25T08:15:17;15.10;;;5.60;;
69185;SDS011;56298;49.246;9.410;2022-11-25T08:17:43;17.30;;;6.40;;
69185;SDS011;56298;49.246;9.410;2022-11-25T08:20:09;10.63;;;5.97;;
69185;SDS011;56298;49.246;9.410;2022-11-25T08:22:34;13.48;;;6.40;;
69185;SDS011;56298;49.246;9.410;2022-11-25T08:24:59;11.40;;;6.28;;
69185;SDS011;56298;49.246;9.410;2022-11-25T08:27:25;16.53;;;6.80;;
69185;SDS011;56298;49.246;9.410;2022-11-25T08:29:50;15.03;;;6.80;;
69185;SDS011;56298;49.246;9.410;2022-11-25T08:32:15;12.10;;;7.10;;
69185;SDS011;56298;49.246;9.410;2022-11-25T08:34:41;11.17;;;6.50;;
69185;SDS011;56298;49.246;9.410;2022-11-25T08:37:06;12.87;;;7.40;;
69185;SDS011;56298;49.246;9.410;2022-11-25T08:39:32;12.27;;;7.35;;
69185;SDS011;56298;49.246;9.410;2022-11-25T08:41:58;14.03;;;7.20;;
69185;SDS011;56298;49.246;9.410;2022-11-25T08:44:26;11.85;;;7.03;;
69185;SDS011;56298;49.246;9.410;2022-11-25T08:46:53;11.63;;;6.50;;
69185;SDS011;56298;49.246;9.410;2022-11-25T08:49:19;13.17;;;6.67;;
69185;SDS011;56298;49.246;9.410;2022-11-25T08:51:46;11.93;;;6.22;;
69185;SDS011;56298;49.246;9.410;2022-11-25T08:54:11;12.13;;;6.60;;
69185;SDS011;56298;49.246;9.410;2022-11-25T08:56:36;10.77;;;6.40;;
69185;SDS011;56298;49.246;9.410;2022-11-25T08:59:02;10.37;;;5.93;;
69185;SDS011;56298;49.246;9.410;2022-11-25T09:01:28;11.15;;;6.60;;
69185;SDS011;56298;49.246;9.410;2022-11-25T09:03:55;11.70;;;6.43;;
69185;SDS011;56298;49.246;9.410;2022-11-25T09:06:21;11.77;;;6.70;;
69185;SDS011;56298;49.246;9.410;2022-11-25T09:08:47;12.30;;;6.80;;
69185;SDS011;56298;49.246;9.410;2022-11-25T09:11:13;10.77;;;6.72;;
69185;SDS011;56298;49.246;9.410;2022-11-25T09:13:38;9.90;;;6.13;;
69185;SDS011;56298;49.246;9.410;2022-11-25T09:16:04;11.10;;;6.60;;
69185;SDS011;56298;49.246;9.410;2022-11-25T09:18:30;10.93;;;6.15;;
69185;SDS011;56298;49.246;9.410;2022-11-25T09:20:56;12.32;;;6.90;;
69185;SDS011;56298;49.246;9.410;2022-11-25T09:23:23;12.05;;;7.18;;
69185;SDS011;56298;49.246;9.410;2022-11-25T09:26:06;13.57;;;7.43;;
69185;SDS011;56298;49.246;9.410;2022-11-25T09:28:32;11.43;;;7.35;;
69185;SDS011;56298;49.246;9.410;2022-11-25T09:30:58;14.82;;;7.72;;
69185;SDS011;56298;49.246;9.410;2022-11-25T09:33:24;11.93;;;6.70;;
69185;SDS011;56298;49.246;9.410;2022-11-25T09:35:49;11.90;;;6.93;;
69185;SDS011;56298;49.246;9.410;2022-11-25T09:38:15;13.27;;;7.17;;
69185;SDS011;56298;49.246;9.410;2022-11-25T09:43:22;14.07;;;7.40;;
69185;SDS011;56298;49.246;9.410;2022-11-25T09:55:26;10.98;;;6.78;;
69185;SDS011;56298;49.246;9.410;2022-11-25T10:00:45;10.82;;;6.60;;
69185;SDS011;56298;49.246;9.410;2022-11-25T10:03:29;12.27;;;6.75;;
69185;SDS011;56298;49.246;9.410;2022-11-25T10:08:39;11.93;;;6.90;;
69185;SDS011;56298;49.246;9.410;2022-11-25T10:14:01;10.30;;;6.17;;
69185;SDS011;56298;49.246;9.410;2022-11-25T10:16:32;9.68;;;6.43;;
69185;SDS011;56298;49.246;9.410;2022-11-25T10:21:50;17.73;;;10.52;;
69185;SDS011;56298;49.246;9.410;2022-11-25T10:24:16;14.85;;;8.93;;
69185;SDS011;56298;49.246;9.410;2022-11-25T10:26:43;11.20;;;6.85;;
69185;SDS011;56298;49.246;9.410;2022-11-25T10:31:40;13.02;;;7.25;;
69185;SDS011;56298;49.246;9.410;2022-11-25T10:36:56;11.98;;;6.45;;
69185;SDS011;56298;49.246;9.410;2022-11-25T10:39:25;10.52;;;6.38;;
69185;SDS011;56298;49.246;9.410;2022-11-25T10:44:36;22.25;;;12.38;;
69185;SDS011;56298;49.246;9.410;2022-11-25T10:52:35;31.08;;;18.77;;
69185;SDS011;56298;49.246;9.410;2022-11-25T10:55:12;24.25;;;15.95;;
69185;SDS011;56298;49.246;9.410;2022-11-25T10:57:38;16.33;;;10.65;;
69185;SDS011;56298;49.246;9.410;2022-11-25T11:00:05;15.17;;;10.90;;
69185;SDS011;56298;49.246;9.410;2022-11-25T11:02:39;18.83;;;12.20;;
69185;SDS011;56298;49.246;9.410;2022-11-25T11:07:35;17.95;;;12.07;;
69185;SDS011;56298;49.246;9.410;2022-11-25T11:12:59;16.93;;;11.67;;
69185;SDS011;56298;49.246;9.410;2022-11-25T11:15:28;25.25;;;16.35;;
69185;SDS011;56298;49.246;9.410;2022-11-25T11:20:47;17.58;;;11.82;;
69185;SDS011;56298;49.246;9.410;2022-11-25T11:23:14;16.92;;;10.15;;
69185;SDS011;56298;49.246;9.410;2022-11-25T11:25:41;14.93;;;9.20;;
69185;SDS011;56298;49.246;9.410;2022-11-25T11:31:05;15.48;;;10.13;;
69185;SDS011;56298;49.246;9.410;2022-11-25T11:33:47;15.80;;;10.02;;
69185;SDS011;56298;49.246;9.410;2022-11-25T11:55:29;12.07;;;7.20;;
69185;SDS011;56298;49.246;9.410;2022-11-25T11:58:01;13.23;;;7.63;;
69185;SDS011;56298;49.246;9.410;2022-11-25T12:03:50;13.15;;;6.95;;
69185;SDS011;56298;49.246;9.410;2022-11-25T12:06:21;10.80;;;6.35;;
69185;SDS011;56298;49.246;9.410;2022-11-25T12:08:59;12.68;;;6.82;;
69185;SDS011;56298;49.246;9.410;2022-11-25T12:11:29;10.43;;;6.20;;
69185;SDS011;56298;49.246;9.410;2022-11-25T12:14:01;11.87;;;6.47;;
69185;SDS011;56298;49.246;9.410;2022-11-25T12:16:33;11.77;;;6.60;;
69185;SDS011;56298;49.246;9.410;2022-11-25T12:21:33;13.00;;;6.22;;
69185;SDS011;56298;49.246;9.410;2022-11-25T12:26:54;11.25;;;5.75;;
69185;SDS011;56298;49.246;9.410;2022-11-25T12:34:52;10.05;;;5.90;;
69185;SDS011;56298;49.246;9.410;2022-11-25T12:37:43;10.55;;;6.25;;
69185;SDS011;56298;49.246;9.410;2022-11-25T12:40:19;10.13;;;5.80;;
69185;SDS011;56298;49.246;9.410;2022-11-25T12:42:50;11.77;;;5.88;;
69185;SDS011;56298;49.246;9.410;2022-11-25T12:45:21;12.57;;;6.37;;
69185;SDS011;56298;49.246;9.410;2022-11-25T12:47:47;12.15;;;6.28;;
69185;SDS011;56298;49.246;9.410;2022-11-25T12:50:14;12.57;;;6.00;;
69185;SDS011;56298;49.246;9.410;2022-11-25T12:53:08;12.43;;;6.43;;
69185;SDS011;56298;49.246;9.410;2022-11-25T12:55:42;12.10;;;6.35;;
69185;SDS011;56298;49.246;9.410;2022-11-25T13:17:41;11.45;;;5.97;;
69185;SDS011;56298;49.246;9.410;2022-11-25T13:23:26;12.32;;;6.38;;
69185;SDS011;56298;49.246;9.410;2022-11-25T13:25:48;13.35;;;7.15;;
69185;SDS011;56298;49.246;9.410;2022-11-25T13:36:14;12.80;;;6.10;;
69185;SDS011;56298;49.246;9.410;2022-11-25T13:49:21;11.25;;;5.63;;
69185;SDS011;56298;49.246;9.410;2022-11-25T13:51:50;9.90;;;5.27;;
69185;SDS011;56298;49.246;9.410;2022-11-25T13:54:18;10.43;;;6.27;;
69185;SDS011;56298;49.246;9.410;2022-11-25T13:57:33;13.20;;;6.28;;
69185;SDS011;56298;49.246;9.410;2022-11-25T14:02:27;12.38;;;6.13;;
69185;SDS011;56298;49.246;9.410;2022-11-25T14:05:15;12.23;;;6.43;;
69185;SDS011;56298;49.246;9.410;2022-11-25T14:13:23;11.27;;;6.33;;
69185;SDS011;56298;49.246;9.410;2022-11-25T14:16:11;11.32;;;6.13;;
69185;SDS011;56298;49.246;9.410;2022-11-25T14:24:19;14.03;;;7.00;;
69185;SDS011;56298;49.246;9.410;2022-11-25T14:26:51;14.50;;;6.33;;
69185;SDS011;56298;49.246;9.410;2022-11-25T14:32:00;16.07;;;6.87;;
69185;SDS011;56298;49.246;9.410;2022-11-25T14:35:14;12.23;;;6.78;;
69185;SDS011;56298;49.246;9.410;2022-11-25T14:37:41;12.63;;;6.70;;
69185;SDS011;56298;49.246;9.410;2022-11-25T14:40:19;12.90;;;6.77;;
69185;SDS011;56298;49.246;9.410;2022-11-25T14:42:49;14.07;;;6.97;;
69185;SDS011;56298;49.246;9.410;2022-11-25T14:47:47;12.00;;;6.43;;
69185;SDS011;56298;49.246;9.410;2022-11-25T14:50:13;12.50;;;6.97;;
69185;SDS011;56298;49.246;9.410;2022-11-25T14:52:39;13.57;;;7.20;;
69185;SDS011;56298;49.246;9.410;2022-11-25T14:55:08;11.97;;;6.50;;
69185;SDS011;56298;49.246;9.410;2022-11-25T14:57:35;13.02;;;7.60;;
69185;SDS011;56298;49.246;9.410;2022-11-25T15:00:13;15.37;;;7.60;;
69185;SDS011;56298;49.246;9.410;2022-11-25T15:02:40;13.52;;;8.05;;
69185;SDS011;56298;49.246;9.410;2022-11-25T15:05:16;13.47;;;7.67;;
69185;SDS011;56298;49.246;9.410;2022-11-25T15:08:35;15.40;;;8.17;;
69185;SDS011;56298;49.246;9.410;2022-11-25T15:13:27;16.70;;;9.75;;
69185;SDS011;56298;49.246;9.410;2022-11-25T15:16:03;19.67;;;11.10;;
69185;SDS011;56298;49.246;9.410;2022-11-25T15:18:34;18.17;;;10.90;;
69185;SDS011;56298;49.246;9.410;2022-11-25T15:21:00;15.85;;;9.40;;
69185;SDS011;56298;49.246;9.410;2022-11-25T15:23:33;26.50;;;14.07;;
69185;SDS011;56298;49.246;9.410;2022-11-25T15:26:02;26.02;;;15.85;;
69185;SDS011;56298;49.246;9.410;2022-11-25T15:28:32;30.50;;;18.30;;
69185;SDS011;56298;49.246;9.410;2022-11-25T15:31:06;22.73;;;13.63;;
69185;SDS011;56298;49.246;9.410;2022-11-25T15:33:33;18.50;;;10.93;;
69185;SDS011;56298;49.246;9.410;2022-11-25T15:36:01;17.92;;;10.75;;
69185;SDS011;56298;49.246;9.410;2022-11-25T15:41:05;14.75;;;9.02;;
69185;SDS011;56298;49.246;9.410;2022-11-25T15:43:44;24.20;;;12.32;;
69185;SDS011;56298;49.246;9.410;2022-11-25T15:46:11;38.35;;;16.15;;
69185;SDS011;56298;49.246;9.410;2022-11-25T15:48:38;70.18;;;23.52;;
69185;SDS011;56298;49.246;9.410;2022-11-25T15:53:57;86.43;;;28.42;;
69185;SDS011;56298;49.246;9.410;2022-11-25T15:56:58;208.20;;;49.45;;
69185;SDS011;56298;49.246;9.410;2022-11-25T16:05:32;90.05;;;27.60;;
69185;SDS011;56298;49.246;9.410;2022-11-25T16:18:15;79.23;;;24.77;;
69185;SDS011;56298;49.246;9.410;2022-11-25T16:21:02;38.08;;;13.27;;
69185;SDS011;56298;49.246;9.410;2022-11-25T16:23:34;42.67;;;15.63;;
69185;SDS011;56298;49.246;9.410;2022-11-25T16:26:12;30.38;;;13.20;;
69185;SDS011;56298;49.246;9.410;2022-11-25T16:28:41;27.45;;;12.02;;
69185;SDS011;56298;49.246;9.410;2022-11-25T16:31:16;24.30;;;10.55;;
69185;SDS011;56298;49.246;9.410;2022-11-25T16:33:42;19.98;;;10.95;;
69185;SDS011;56298;49.246;9.410;2022-11-25T16:36:07;28.67;;;13.00;;
69185;SDS011;56298;49.246;9.410;2022-11-25T16:38:33;211.45;;;43.30;;
69185;SDS011;56298;49.246;9.410;2022-11-25T16:40:58;112.17;;;27.83;;
69185;SDS011;56298;49.246;9.410;2022-11-25T16:43:25;115.20;;;27.92;;
69185;SDS011;56298;49.246;9.410;2022-11-25T16:45:52;124.78;;;30.42;;
69185;SDS011;56298;49.246;9.410;2022-11-25T16:48:22;173.98;;;39.30;;
69185;SDS011;56298;49.246;9.410;2022-11-25T16:50:48;140.77;;;31.38;;
69185;SDS011;56298;49.246;9.410;2022-11-25T16:53:15;56.13;;;16.30;;
69185;SDS011;56298;49.246;9.410;2022-11-25T16:55:43;75.35;;;22.55;;
69185;SDS011;56298;49.246;9.410;2022-11-25T16:58:17;104.45;;;35.63;;
69185;SDS011;56298;49.246;9.410;2022-11-25T17:00:49;64.35;;;23.55;;
69185;SDS011;56298;49.246;9.410;2022-11-25T17:03:18;37.65;;;14.52;;
69185;SDS011;56298;49.246;9.410;2022-11-25T17:05:44;30.03;;;13.80;;
69185;SDS011;56298;49.246;9.410;2022-11-25T17:08:10;30.23;;;14.00;;
69185;SDS011;56298;49.246;9.410;2022-11-25T17:10:36;23.70;;;11.63;;
69185;SDS011;56298;49.246;9.410;2022-11-25T17:13:02;21.60;;;10.75;;
69185;SDS011;56298;49.246;9.410;2022-11-25T17:15:32;21.73;;;10.40;;
69185;SDS011;56298;49.246;9.410;2022-11-25T17:17:59;31.95;;;14.70;;
69185;SDS011;56298;49.246;9.410;2022-11-25T17:20:26;24.60;;;11.53;;
69185;SDS011;56298;49.246;9.410;2022-11-25T17:22:51;23.83;;;11.40;;
69185;SDS011;56298;49.246;9.410;2022-11-25T17:25:17;22.73;;;11.65;;
69185;SDS011;56298;49.246;9.410;2022-11-25T17:27:45;22.60;;;11.00;;
69185;SDS011;56298;49.246;9.410;2022-11-25T17:30:16;20.60;;;10.15;;